sensor_id;sensor_type;location;lat;lon;timestamp;pressure;altitude;pressure_sealevel;temperature;humidity
10806;BME280;5455;53.224;6.000;2023-07-31T00:01:38;100700.47;;;17.82;100.00
10806;BME280;5455;53.224;6.000;2023-07-31T00:04:05;100711.97;;;17.87;100.00
10806;BME280;5455;53.224;6.000;2023-07-31T00:06:33;100705.66;;;17.80;100.00
10806;BME280;5455;53.224;6.000;2023-07-31T00:09:01;100703.34;;;17.71;100.00
10806;BME280;5455;53.224;6.000;2023-07-31T00:11:27;100701.75;;;17.70;100.00
10806;BME280;5455;53.224;6.000;2023-07-31T00:13:55;100697.78;;;17.68;100.00
10806;BME280;5455;53.224;6.000;2023-07-31T00:16:21;100702.56;;;17.67;100.00
10806;BME280;5455;53.224;6.000;2023-07-31T00:18:48;100700.25;;;17.58;100.00
10806;BME280;5455;53.224;6.000;2023-07-31T00:21:16;100697.50;;;17.55;100.00
10806;BME280;5455;53.224;6.000;2023-07-31T00:23:42;100696.31;;;17.56;100.00
10806;BME280;5455;53.224;6.000;2023-07-31T00:26:09;100688.72;;;17.53;100.00
10806;BME280;5455;53.224;6.000;2023-07-31T00:28:36;100695.91;;;17.50;100.00
10806;BME280;5455;53.224;6.000;2023-07-31T00:31:03;100685.19;;;17.45;100.00
10806;BME280;5455;53.224;6.000;2023-07-31T00:33:31;100694.34;;;17.46;100.00
10806;BME280;5455;53.224;6.000;2023-07-31T00:35:58;100683.25;;;17.42;100.00
10806;BME280;5455;53.224;6.000;2023-07-31T00:38:25;100688.44;;;17.37;100.00
10806;BME280;5455;53.224;6.000;2023-07-31T00:40:52;100679.31;;;17.36;100.00
10806;BME280;5455;53.224;6.000;2023-07-31T00:43:19;100690.81;;;17.38;100.00
10806;BME280;5455;53.224;6.000;2023-07-31T00:45:46;100682.09;;;17.36;100.00
10806;BME280;5455;53.224;6.000;2023-07-31T00:48:13;100676.53;;;17.36;100.00
10806;BME280;5455;53.224;6.000;2023-07-31T00:50:40;100678.88;;;17.38;100.00
10806;BME280;5455;53.224;6.000;2023-07-31T00:53:07;100671.66;;;17.44;100.00
10806;BME280;5455;53.224;6.000;2023-07-31T00:55:34;100670.53;;;17.34;100.00
10806;BME280;5455;53.224;6.000;2023-07-31T00:58:01;100674.56;;;17.30;100.00
10806;BME280;5455;53.224;6.000;2023-07-31T01:00:28;100672.56;;;17.30;100.00
10806;BME280;5455;53.224;6.000;2023-07-31T01:02:56;100674.91;;;17.35;100.00
10806;BME280;5455;53.224;6.000;2023-07-31T01:05:33;100675.28;;;17.41;100.00
10806;BME280;5455;53.224;6.000;2023-07-31T01:08:18;100672.47;;;17.44;100.00
10806;BME280;5455;53.224;6.000;2023-07-31T01:10:56;100670.03;;;17.50;100.00
10806;BME280;5455;53.224;6.000;2023-07-31T01:13:24;100667.63;;;17.55;100.00
10806;BME280;5455;53.224;6.000;2023-07-31T01:15:51;100665.19;;;17.57;100.00
10806;BME280;5455;53.224;6.000;2023-07-31T01:18:20;100670.81;;;17.50;100.00
10806;BME280;5455;53.224;6.000;2023-07-31T01:20:54;100663.25;;;17.51;100.00
10806;BME280;5455;53.224;6.000;2023-07-31T01:23:36;100665.28;;;17.47;100.00
10806;BME280;5455;53.224;6.000;2023-07-31T01:26:16;100659.28;;;17.48;100.00
10806;BME280;5455;53.224;6.000;2023-07-31T01:29:08;100659.69;;;17.47;100.00
10806;BME280;5455;53.224;6.000;2023-07-31T01:31:38;100661.22;;;17.58;100.00
10806;BME280;5455;53.224;6.000;2023-07-31T01:34:08;100658.84;;;17.53;100.00
10806;BME280;5455;53.224;6.000;2023-07-31T01:36:36;100663.63;;;17.60;100.00
10806;BME280;5455;53.224;6.000;2023-07-31T01:39:04;100657.59;;;17.65;100.00
10806;BME280;5455;53.224;6.000;2023-07-31T01:41:31;100652.41;;;17.63;100.00
10806;BME280;5455;53.224;6.000;2023-07-31T01:43:58;100651.66;;;17.59;100.00
10806;BME280;5455;53.224;6.000;2023-07-31T01:46:25;100646.09;;;17.59;100.00
10806;BME280;5455;53.224;6.000;2023-07-31T01:48:52;100648.09;;;17.52;100.00
10806;BME280;5455;53.224;6.000;2023-07-31T01:51:19;100641.72;;;17.55;100.00
10806;BME280;5455;53.224;6.000;2023-07-31T01:53:46;100637.34;;;17.54;100.00
10806;BME280;5455;53.224;6.000;2023-07-31T01:56:13;100635.38;;;17.51;100.00
10806;BME280;5455;53.224;6.000;2023-07-31T01:58:40;100633.38;;;17.55;100.00
10806;BME280;5455;53.224;6.000;2023-07-31T02:01:07;100631.75;;;17.57;100.00
10806;BME280;5455;53.224;6.000;2023-07-31T02:03:34;100619.44;;;17.55;100.00
10806;BME280;5455;53.224;6.000;2023-07-31T02:06:01;100626.22;;;17.50;100.00
10806;BME280;5455;53.224;6.000;2023-07-31T02:08:28;100615.88;;;17.51;100.00
10806;BME280;5455;53.224;6.000;2023-07-31T02:10:56;100622.63;;;17.50;100.00
10806;BME280;5455;53.224;6.000;2023-07-31T02:13:23;100618.25;;;17.49;100.00
10806;BME280;5455;53.224;6.000;2023-07-31T02:15:51;100619.06;;;17.46;100.00
10806;BME280;5455;53.224;6.000;2023-07-31T02:18:18;100619.53;;;17.41;100.00
10806;BME280;5455;53.224;6.000;2023-07-31T02:20:51;100618.69;;;17.44;100.00
10806;BME280;5455;53.224;6.000;2023-07-31T02:23:19;100616.03;;;17.33;100.00
10806;BME280;5455;53.224;6.000;2023-07-31T02:25:46;100600.97;;;17.24;100.00
10806;BME280;5455;53.224;6.000;2023-07-31T02:28:14;100609.66;;;17.33;100.00
10806;BME280;5455;53.224;6.000;2023-07-31T02:30:44;100616.88;;;17.27;100.00
10806;BME280;5455;53.224;6.000;2023-07-31T02:33:14;100604.09;;;17.29;100.00
10806;BME280;5455;53.224;6.000;2023-07-31T02:35:41;100604.09;;;17.29;100.00
10806;BME280;5455;53.224;6.000;2023-07-31T02:38:08;100598.16;;;17.27;100.00
10806;BME280;5455;53.224;6.000;2023-07-31T02:40:35;100596.94;;;17.25;100.00
10806;BME280;5455;53.224;6.000;2023-07-31T02:43:02;100592.19;;;17.22;100.00
10806;BME280;5455;53.224;6.000;2023-07-31T02:45:29;100580.31;;;17.18;100.00
10806;BME280;5455;53.224;6.000;2023-07-31T02:47:56;100591.47;;;17.14;100.00
10806;BME280;5455;53.224;6.000;2023-07-31T02:50:23;100583.13;;;17.11;100.00
10806;BME280;5455;53.224;6.000;2023-07-31T02:52:50;100578.75;;;17.13;100.00
10806;BME280;5455;53.224;6.000;2023-07-31T02:55:17;100582.75;;;17.12;100.00
10806;BME280;5455;53.224;6.000;2023-07-31T02:57:44;100580.72;;;17.13;100.00
10806;BME280;5455;53.224;6.000;2023-07-31T03:00:11;100588.31;;;17.12;100.00
10806;BME280;5455;53.224;6.000;2023-07-31T03:02:38;100586.72;;;17.11;100.00
10806;BME280;5455;53.224;6.000;2023-07-31T03:05:06;100586.72;;;17.11;100.00
10806;BME280;5455;53.224;6.000;2023-07-31T03:07:33;100584.34;;;17.09;100.00
10806;BME280;5455;53.224;6.000;2023-07-31T03:09:59;100579.59;;;17.06;100.00
10806;BME280;5455;53.224;6.000;2023-07-31T03:12:27;100585.94;;;17.07;100.00
10806;BME280;5455;53.224;6.000;2023-07-31T03:14:54;100583.59;;;17.05;100.00
10806;BME280;5455;53.224;6.000;2023-07-31T03:17:21;100578.41;;;17.04;100.00
10806;BME280;5455;53.224;6.000;2023-07-31T03:19:48;100589.16;;;17.05;100.00
10806;BME280;5455;53.224;6.000;2023-07-31T03:22:15;100587.94;;;17.06;100.00
10806;BME280;5455;53.224;6.000;2023-07-31T03:24:42;100583.19;;;17.03;100.00
10806;BME280;5455;53.224;6.000;2023-07-31T03:27:09;100580.88;;;16.91;100.00
10806;BME280;5455;53.224;6.000;2023-07-31T03:29:36;100578.16;;;16.84;100.00
10806;BME280;5455;53.224;6.000;2023-07-31T03:32:03;100568.25;;;16.80;100.00
10806;BME280;5455;53.224;6.000;2023-07-31T03:34:30;100570.59;;;16.85;100.00
10806;BME280;5455;53.224;6.000;2023-07-31T03:36:58;100565.41;;;16.90;100.00
10806;BME280;5455;53.224;6.000;2023-07-31T03:39:25;100567.47;;;16.79;100.00
10806;BME280;5455;53.224;6.000;2023-07-31T03:41:53;100567.84;;;16.81;100.00
10806;BME280;5455;53.224;6.000;2023-07-31T03:44:20;100565.03;;;16.85;100.00
10806;BME280;5455;53.224;6.000;2023-07-31T03:46:47;100572.97;;;16.86;100.00
10806;BME280;5455;53.224;6.000;2023-07-31T03:49:14;100566.97;;;16.91;100.00
10806;BME280;5455;53.224;6.000;2023-07-31T03:51:41;100566.13;;;16.94;100.00
10806;BME280;5455;53.224;6.000;2023-07-31T03:54:08;100558.13;;;17.03;100.00
10806;BME280;5455;53.224;6.000;2023-07-31T03:56:35;100559.72;;;17.04;100.00
10806;BME280;5455;53.224;6.000;2023-07-31T03:59:02;100550.53;;;17.07;100.00
10806;BME280;5455;53.224;6.000;2023-07-31T04:01:29;100545.75;;;17.08;100.00
10806;BME280;5455;53.224;6.000;2023-07-31T04:03:56;100537.41;;;17.08;100.00
10806;BME280;5455;53.224;6.000;2023-07-31T04:06:23;100539.00;;;17.09;100.00
10806;BME280;5455;53.224;6.000;2023-07-31T04:08:50;100536.59;;;17.07;100.00
10806;BME280;5455;53.224;6.000;2023-07-31T04:11:17;100546.91;;;17.11;100.00
10806;BME280;5455;53.224;6.000;2023-07-31T04:13:44;100542.91;;;17.15;100.00
10806;BME280;5455;53.224;6.000;2023-07-31T04:16:11;100529.34;;;17.21;100.00
10806;BME280;5455;53.224;6.000;2023-07-31T04:18:38;100527.72;;;17.23;100.00
10806;BME280;5455;53.224;6.000;2023-07-31T04:21:05;100535.66;;;17.25;100.00
10806;BME280;5455;53.224;6.000;2023-07-31T04:23:32;100521.69;;;17.28;100.00
10806;BME280;5455;53.224;6.000;2023-07-31T04:25:59;100526.88;;;17.30;100.00
10806;BME280;5455;53.224;6.000;2023-07-31T04:28:26;100533.22;;;17.30;100.00
10806;BME280;5455;53.224;6.000;2023-07-31T04:30:53;100522.84;;;17.31;100.00
10806;BME280;5455;53.224;6.000;2023-07-31T04:33:20;100525.25;;;17.32;100.00
10806;BME280;5455;53.224;6.000;2023-07-31T04:35:51;100530.75;;;17.39;100.00
10806;BME280;5455;53.224;6.000;2023-07-31T04:38:21;100527.97;;;17.39;100.00
10806;BME280;5455;53.224;6.000;2023-07-31T04:40:48;100530.75;;;17.39;100.00
10806;BME280;5455;53.224;6.000;2023-07-31T04:43:16;100524.78;;;17.37;100.00
10806;BME280;5455;53.224;6.000;2023-07-31T04:45:45;100529.19;;;17.35;100.00
10806;BME280;5455;53.224;6.000;2023-07-31T04:48:14;100514.06;;;17.36;100.00
10806;BME280;5455;53.224;6.000;2023-07-31T04:50:41;100516.81;;;17.39;100.00
10806;BME280;5455;53.224;6.000;2023-07-31T04:53:08;100524.34;;;17.42;100.00
10806;BME280;5455;53.224;6.000;2023-07-31T04:55:35;100519.13;;;17.48;100.00
10806;BME280;5455;53.224;6.000;2023-07-31T04:58:02;100526.63;;;17.54;100.00
10806;BME280;5455;53.224;6.000;2023-07-31T05:00:29;100519.84;;;17.55;100.00
10806;BME280;5455;53.224;6.000;2023-07-31T05:02:56;100514.25;;;17.59;100.00
10806;BME280;5455;53.224;6.000;2023-07-31T05:05:23;100512.22;;;17.63;100.00
10806;BME280;5455;53.224;6.000;2023-07-31T05:07:51;100504.16;;;17.72;100.00
10806;BME280;5455;53.224;6.000;2023-07-31T05:10:17;100505.72;;;17.73;100.00
10806;BME280;5455;53.224;6.000;2023-07-31T05:12:44;100513.28;;;17.73;100.00
10806;BME280;5455;53.224;6.000;2023-07-31T05:15:11;100493.28;;;17.81;100.00
10806;BME280;5455;53.224;6.000;2023-07-31T05:17:38;100500.53;;;17.75;100.00
10806;BME280;5455;53.224;6.000;2023-07-31T05:20:06;100499.41;;;17.69;100.00
10806;BME280;5455;53.224;6.000;2023-07-31T05:22:33;100493.00;;;17.72;100.00
10806;BME280;5455;53.224;6.000;2023-07-31T05:25:00;100494.53;;;17.77;100.00
10806;BME280;5455;53.224;6.000;2023-07-31T05:27:27;100493.72;;;17.76;100.00
10806;BME280;5455;53.224;6.000;2023-07-31T05:29:54;100490.59;;;17.71;100.00
10806;BME280;5455;53.224;6.000;2023-07-31T05:32:21;100489.00;;;17.70;100.00
10806;BME280;5455;53.224;6.000;2023-07-31T05:34:51;100478.66;;;17.70;100.00
10806;BME280;5455;53.224;6.000;2023-07-31T05:37:19;100482.16;;;17.78;100.00
10806;BME280;5455;53.224;6.000;2023-07-31T05:39:46;100482.97;;;17.78;100.00
10806;BME280;5455;53.224;6.000;2023-07-31T05:42:13;100478.53;;;17.81;100.00
10806;BME280;5455;53.224;6.000;2023-07-31T05:44:40;100477.75;;;17.80;100.00
10806;BME280;5455;53.224;6.000;2023-07-31T05:47:07;100477.31;;;17.82;100.00
10806;BME280;5455;53.224;6.000;2023-07-31T05:49:34;100477.66;;;17.87;100.00
10806;BME280;5455;53.224;6.000;2023-07-31T05:52:01;100476.88;;;17.87;100.00
10806;BME280;5455;53.224;6.000;2023-07-31T05:54:27;100467.28;;;17.88;100.00
10806;BME280;5455;53.224;6.000;2023-07-31T05:56:54;100468.03;;;17.92;100.00
10806;BME280;5455;53.224;6.000;2023-07-31T05:59:21;100471.53;;;17.99;100.00
10806;BME280;5455;53.224;6.000;2023-07-31T06:01:48;100471.94;;;17.98;100.00
10806;BME280;5455;53.224;6.000;2023-07-31T06:04:16;100468.75;;;17.99;100.00
10806;BME280;5455;53.224;6.000;2023-07-31T06:06:43;100471.09;;;18.01;100.00
10806;BME280;5455;53.224;6.000;2023-07-31T06:09:10;100465.47;;;18.04;100.00
10806;BME280;5455;53.224;6.000;2023-07-31T06:11:38;100465.47;;;18.04;100.00
10806;BME280;5455;53.224;6.000;2023-07-31T06:14:05;100465.44;;;18.08;100.00
10806;BME280;5455;53.224;6.000;2023-07-31T06:16:32;100469.34;;;18.14;100.00
10806;BME280;5455;53.224;6.000;2023-07-31T06:18:59;100462.53;;;18.15;100.00
10806;BME280;5455;53.224;6.000;2023-07-31T06:21:26;100461.28;;;18.20;100.00
10806;BME280;5455;53.224;6.000;2023-07-31T06:23:53;100463.19;;;18.26;100.00
10806;BME280;5455;53.224;6.000;2023-07-31T06:26:20;100455.28;;;18.21;100.00
10806;BME280;5455;53.224;6.000;2023-07-31T06:28:47;100460.75;;;18.28;100.00
10806;BME280;5455;53.224;6.000;2023-07-31T06:31:14;100456.28;;;18.34;100.00
10806;BME280;5455;53.224;6.000;2023-07-31T06:33:41;100454.88;;;18.49;100.00
10806;BME280;5455;53.224;6.000;2023-07-31T06:36:08;100456.31;;;18.61;100.00
10806;BME280;5455;53.224;6.000;2023-07-31T06:38:35;100445.81;;;18.68;100.00
10806;BME280;5455;53.224;6.000;2023-07-31T06:41:03;100444.03;;;18.78;100.00
10806;BME280;5455;53.224;6.000;2023-07-31T06:43:30;100439.75;;;18.74;100.00
10806;BME280;5455;53.224;6.000;2023-07-31T06:45:57;100443.38;;;18.70;100.00
10806;BME280;5455;53.224;6.000;2023-07-31T06:48:24;100438.28;;;18.65;100.00
10806;BME280;5455;53.224;6.000;2023-07-31T06:50:51;100433.69;;;18.52;100.00
10806;BME280;5455;53.224;6.000;2023-07-31T06:53:18;100427.28;;;18.55;100.00
10806;BME280;5455;53.224;6.000;2023-07-31T06:55:45;100420.09;;;18.54;100.00
10806;BME280;5455;53.224;6.000;2023-07-31T06:58:15;100428.91;;;18.52;100.00
10806;BME280;5455;53.224;6.000;2023-07-31T07:00:42;100419.75;;;18.48;100.00
10806;BME280;5455;53.224;6.000;2023-07-31T07:03:08;100424.19;;;18.46;100.00
10806;BME280;5455;53.224;6.000;2023-07-31T07:05:36;100408.88;;;18.57;100.00
10806;BME280;5455;53.224;6.000;2023-07-31T07:08:03;100419.50;;;18.66;100.00
10806;BME280;5455;53.224;6.000;2023-07-31T07:10:30;100414.09;;;18.79;100.00
10806;BME280;5455;53.224;6.000;2023-07-31T07:12:57;100410.75;;;18.87;100.00
10806;BME280;5455;53.224;6.000;2023-07-31T07:15:24;100399.72;;;18.80;100.00
10806;BME280;5455;53.224;6.000;2023-07-31T07:17:51;100400.44;;;18.84;100.00
10806;BME280;5455;53.224;6.000;2023-07-31T07:20:18;100404.81;;;18.85;100.00
10806;BME280;5455;53.224;6.000;2023-07-31T07:22:46;100400.50;;;18.81;100.00
10806;BME280;5455;53.224;6.000;2023-07-31T07:25:13;100391.50;;;18.93;100.00
10806;BME280;5455;53.224;6.000;2023-07-31T07:27:40;100396.84;;;19.07;100.00
10806;BME280;5455;53.224;6.000;2023-07-31T07:30:07;100390.03;;;19.27;100.00
10806;BME280;5455;53.224;6.000;2023-07-31T07:32:35;100389.69;;;19.25;100.00
10806;BME280;5455;53.224;6.000;2023-07-31T07:35:02;100391.09;;;19.14;100.00
10806;BME280;5455;53.224;6.000;2023-07-31T07:37:29;100382.59;;;19.21;100.00
10806;BME280;5455;53.224;6.000;2023-07-31T07:39:58;100379.50;;;19.35;100.00
10806;BME280;5455;53.224;6.000;2023-07-31T07:42:25;100389.38;;;19.43;100.00
10806;BME280;5455;53.224;6.000;2023-07-31T07:44:52;100384.88;;;19.65;100.00
10806;BME280;5455;53.224;6.000;2023-07-31T07:47:18;100385.50;;;19.93;100.00
10806;BME280;5455;53.224;6.000;2023-07-31T07:49:46;100381.63;;;19.87;100.00
10806;BME280;5455;53.224;6.000;2023-07-31T07:52:19;100378.63;;;19.77;100.00
10806;BME280;5455;53.224;6.000;2023-07-31T07:54:46;100388.41;;;19.69;100.00
10806;BME280;5455;53.224;6.000;2023-07-31T07:57:13;100385.94;;;19.55;100.00
10806;BME280;5455;53.224;6.000;2023-07-31T07:59:40;100383.25;;;19.48;100.00
10806;BME280;5455;53.224;6.000;2023-07-31T08:02:07;100377.81;;;19.41;100.00
10806;BME280;5455;53.224;6.000;2023-07-31T08:04:34;100369.69;;;19.27;100.00
10806;BME280;5455;53.224;6.000;2023-07-31T08:07:01;100362.03;;;19.31;100.00
10806;BME280;5455;53.224;6.000;2023-07-31T08:09:28;100365.91;;;19.37;100.00
10806;BME280;5455;53.224;6.000;2023-07-31T08:11:56;100371.81;;;19.43;100.00
10806;BME280;5455;53.224;6.000;2023-07-31T08:14:28;100348.41;;;19.53;100.00
10806;BME280;5455;53.224;6.000;2023-07-31T08:16:59;100353.31;;;19.65;100.00
10806;BME280;5455;53.224;6.000;2023-07-31T08:19:26;100360.59;;;19.62;100.00
10806;BME280;5455;53.224;6.000;2023-07-31T08:21:54;100368.56;;;19.64;100.00
10806;BME280;5455;53.224;6.000;2023-07-31T08:24:24;100362.16;;;19.63;100.00
10806;BME280;5455;53.224;6.000;2023-07-31T08:26:51;100360.84;;;19.68;100.00
10806;BME280;5455;53.224;6.000;2023-07-31T08:29:18;100358.38;;;19.90;100.00
10806;BME280;5455;53.224;6.000;2023-07-31T08:31:45;100359.44;;;19.96;100.00
10806;BME280;5455;53.224;6.000;2023-07-31T08:34:12;100357.31;;;20.36;100.00
10806;BME280;5455;53.224;6.000;2023-07-31T08:36:39;100350.53;;;20.81;100.00
10806;BME280;5455;53.224;6.000;2023-07-31T08:39:06;100345.59;;;21.30;100.00
10806;BME280;5455;53.224;6.000;2023-07-31T08:41:38;100346.09;;;21.67;100.00
10806;BME280;5455;53.224;6.000;2023-07-31T08:44:07;100342.88;;;21.68;100.00
10806;BME280;5455;53.224;6.000;2023-07-31T08:46:34;100347.66;;;21.55;100.00
10806;BME280;5455;53.224;6.000;2023-07-31T08:49:04;100343.75;;;21.53;100.00
10806;BME280;5455;53.224;6.000;2023-07-31T08:51:34;100347.63;;;21.42;100.00
10806;BME280;5455;53.224;6.000;2023-07-31T08:54:01;100340.84;;;20.99;100.00
10806;BME280;5455;53.224;6.000;2023-07-31T08:56:32;100345.50;;;20.89;100.00
10806;BME280;5455;53.224;6.000;2023-07-31T08:59:02;100342.59;;;20.64;100.00
10806;BME280;5455;53.224;6.000;2023-07-31T09:01:29;100343.31;;;20.52;100.00
10806;BME280;5455;53.224;6.000;2023-07-31T09:03:59;100331.31;;;20.51;100.00
10806;BME280;5455;53.224;6.000;2023-07-31T09:06:30;100344.06;;;20.68;100.00
10806;BME280;5455;53.224;6.000;2023-07-31T09:08:57;100339.28;;;20.53;100.00
10806;BME280;5455;53.224;6.000;2023-07-31T09:11:25;100340.19;;;20.33;100.00
10806;BME280;5455;53.224;6.000;2023-07-31T09:13:52;100341.31;;;20.36;100.00
10806;BME280;5455;53.224;6.000;2023-07-31T09:16:27;100334.44;;;20.69;100.00
10806;BME280;5455;53.224;6.000;2023-07-31T09:18:56;100336.38;;;21.17;100.00
10806;BME280;5455;53.224;6.000;2023-07-31T09:21:24;100338.69;;;21.48;100.00
10806;BME280;5455;53.224;6.000;2023-07-31T09:23:52;100350.44;;;21.42;100.00
10806;BME280;5455;53.224;6.000;2023-07-31T09:26:32;100339.56;;;21.45;100.00
10806;BME280;5455;53.224;6.000;2023-07-31T09:29:01;100338.59;;;21.22;100.00
10806;BME280;5455;53.224;6.000;2023-07-31T09:31:38;100324.13;;;20.95;100.00
10806;BME280;5455;53.224;6.000;2023-07-31T09:34:06;100322.88;;;21.12;100.00
10806;BME280;5455;53.224;6.000;2023-07-31T09:36:42;100328.38;;;21.16;100.00
10806;BME280;5455;53.224;6.000;2023-07-31T09:39:10;100324.25;;;21.33;100.00
10806;BME280;5455;53.224;6.000;2023-07-31T09:41:43;100340.00;;;21.43;100.00
10806;BME280;5455;53.224;6.000;2023-07-31T09:44:11;100339.09;;;21.05;100.00
10806;BME280;5455;53.224;6.000;2023-07-31T09:46:38;100327.34;;;20.65;100.00
10806;BME280;5455;53.224;6.000;2023-07-31T09:49:10;100324.47;;;20.52;100.00
10806;BME280;5455;53.224;6.000;2023-07-31T09:51:39;100332.16;;;20.80;100.00
10806;BME280;5455;53.224;6.000;2023-07-31T09:54:13;100329.53;;;21.31;100.00
10806;BME280;5455;53.224;6.000;2023-07-31T09:56:45;100325.44;;;21.61;100.00
10806;BME280;5455;53.224;6.000;2023-07-31T09:59:15;100317.16;;;21.70;100.00
10806;BME280;5455;53.224;6.000;2023-07-31T10:01:44;100320.44;;;21.81;100.00
10806;BME280;5455;53.224;6.000;2023-07-31T10:04:15;100324.56;;;21.76;100.00
10806;BME280;5455;53.224;6.000;2023-07-31T10:06:47;100324.88;;;21.53;100.00
10806;BME280;5455;53.224;6.000;2023-07-31T10:09:18;100318.31;;;21.31;100.00
10806;BME280;5455;53.224;6.000;2023-07-31T10:11:50;100323.69;;;21.25;100.00
10806;BME280;5455;53.224;6.000;2023-07-31T10:14:20;100322.38;;;21.42;100.00
10806;BME280;5455;53.224;6.000;2023-07-31T10:16:48;100316.88;;;21.39;100.00
10806;BME280;5455;53.224;6.000;2023-07-31T10:19:17;100322.81;;;21.28;100.00
10806;BME280;5455;53.224;6.000;2023-07-31T10:21:46;100320.91;;;21.25;100.00
10806;BME280;5455;53.224;6.000;2023-07-31T10:24:15;100313.94;;;21.01;100.00
10806;BME280;5455;53.224;6.000;2023-07-31T10:26:45;100310.59;;;21.06;100.00
10806;BME280;5455;53.224;6.000;2023-07-31T10:29:15;100311.94;;;21.30;100.00
10806;BME280;5455;53.224;6.000;2023-07-31T10:31:45;100313.56;;;21.69;100.00
10806;BME280;5455;53.224;6.000;2023-07-31T10:34:13;100310.88;;;21.66;100.00
10806;BME280;5455;53.224;6.000;2023-07-31T10:36:41;100310.38;;;21.42;100.00
10806;BME280;5455;53.224;6.000;2023-07-31T10:39:34;100299.81;;;21.21;100.00
10806;BME280;5455;53.224;6.000;2023-07-31T10:42:13;100308.13;;;20.79;100.00
10806;BME280;5455;53.224;6.000;2023-07-31T10:44:44;100303.97;;;20.55;100.00
10806;BME280;5455;53.224;6.000;2023-07-31T10:47:14;100308.88;;;20.67;100.00
10806;BME280;5455;53.224;6.000;2023-07-31T10:49:45;100312.00;;;21.14;100.00
10806;BME280;5455;53.224;6.000;2023-07-31T10:52:13;100320.16;;;21.37;100.00
10806;BME280;5455;53.224;6.000;2023-07-31T10:54:40;100315.25;;;21.67;100.00
10806;BME280;5455;53.224;6.000;2023-07-31T10:57:21;100321.75;;;22.27;100.00
10806;BME280;5455;53.224;6.000;2023-07-31T10:59:49;100329.78;;;22.75;100.00
10806;BME280;5455;53.224;6.000;2023-07-31T11:02:26;100337.47;;;23.18;100.00
10806;BME280;5455;53.224;6.000;2023-07-31T11:05:09;100331.66;;;22.78;100.00
10806;BME280;5455;53.224;6.000;2023-07-31T11:07:48;100318.56;;;22.97;100.00
10806;BME280;5455;53.224;6.000;2023-07-31T11:10:17;100327.91;;;23.16;100.00
10806;BME280;5455;53.224;6.000;2023-07-31T11:12:45;100324.53;;;23.42;100.00
10806;BME280;5455;53.224;6.000;2023-07-31T11:15:13;100327.88;;;23.37;100.00
10806;BME280;5455;53.224;6.000;2023-07-31T11:17:40;100325.84;;;23.07;100.00
10806;BME280;5455;53.224;6.000;2023-07-31T11:20:08;100313.41;;;22.48;100.00
10806;BME280;5455;53.224;6.000;2023-07-31T11:22:35;100318.78;;;21.96;100.00
10806;BME280;5455;53.224;6.000;2023-07-31T11:25:03;100323.38;;;21.90;100.00
10806;BME280;5455;53.224;6.000;2023-07-31T11:27:31;100324.72;;;21.98;100.00
10806;BME280;5455;53.224;6.000;2023-07-31T11:30:02;100324.94;;;22.16;100.00
10806;BME280;5455;53.224;6.000;2023-07-31T11:32:29;100319.31;;;22.04;100.00
10806;BME280;5455;53.224;6.000;2023-07-31T11:34:56;100315.84;;;22.00;100.00
10806;BME280;5455;53.224;6.000;2023-07-31T11:37:23;100309.28;;;21.65;100.00
10806;BME280;5455;53.224;6.000;2023-07-31T11:40:09;100305.81;;;21.61;100.00
10806;BME280;5455;53.224;6.000;2023-07-31T11:42:36;100307.50;;;21.83;100.00
10806;BME280;5455;53.224;6.000;2023-07-31T11:45:07;100313.91;;;21.84;100.00
10806;BME280;5455;53.224;6.000;2023-07-31T11:47:36;100302.69;;;21.71;100.00
10806;BME280;5455;53.224;6.000;2023-07-31T11:50:05;100305.38;;;21.75;100.00
10806;BME280;5455;53.224;6.000;2023-07-31T11:52:40;100313.81;;;22.00;100.00
10806;BME280;5455;53.224;6.000;2023-07-31T11:55:09;100317.03;;;22.36;100.00
10806;BME280;5455;53.224;6.000;2023-07-31T11:57:38;100328.53;;;22.76;100.00
10806;BME280;5455;53.224;6.000;2023-07-31T12:00:08;100315.03;;;22.71;100.00
10806;BME280;5455;53.224;6.000;2023-07-31T12:02:37;100312.63;;;22.48;100.00
10806;BME280;5455;53.224;6.000;2023-07-31T12:05:11;100318.00;;;22.68;100.00
10806;BME280;5455;53.224;6.000;2023-07-31T12:07:48;100306.59;;;22.71;100.00
10806;BME280;5455;53.224;6.000;2023-07-31T12:10:27;100311.97;;;22.44;100.00
10806;BME280;5455;53.224;6.000;2023-07-31T12:13:11;100311.44;;;22.24;100.00
10806;BME280;5455;53.224;6.000;2023-07-31T12:15:45;100306.97;;;22.14;100.00
10806;BME280;5455;53.224;6.000;2023-07-31T12:18:19;100312.78;;;22.19;100.00
10806;BME280;5455;53.224;6.000;2023-07-31T12:20:48;100318.22;;;22.61;100.00
10806;BME280;5455;53.224;6.000;2023-07-31T12:23:26;100322.66;;;23.05;100.00
10806;BME280;5455;53.224;6.000;2023-07-31T12:26:16;100326.72;;;23.26;100.00
10806;BME280;5455;53.224;6.000;2023-07-31T12:28:45;100319.00;;;22.95;100.00
10806;BME280;5455;53.224;6.000;2023-07-31T12:31:15;100324.38;;;22.68;100.00
10806;BME280;5455;53.224;6.000;2023-07-31T12:33:44;100317.72;;;22.40;100.00
10806;BME280;5455;53.224;6.000;2023-07-31T12:36:16;100309.00;;;22.01;100.00
10806;BME280;5455;53.224;6.000;2023-07-31T12:38:45;100305.50;;;21.84;100.00
10806;BME280;5455;53.224;6.000;2023-07-31T12:41:13;100301.69;;;21.90;100.00
10806;BME280;5455;53.224;6.000;2023-07-31T12:43:41;100291.47;;;21.96;100.00
10806;BME280;5455;53.224;6.000;2023-07-31T12:46:09;100300.09;;;22.27;100.00
10806;BME280;5455;53.224;6.000;2023-07-31T12:48:38;100301.31;;;22.26;100.00
10806;BME280;5455;53.224;6.000;2023-07-31T12:51:06;100296.75;;;22.54;100.00
10806;BME280;5455;53.224;6.000;2023-07-31T12:53:36;100297.19;;;22.65;100.00
10806;BME280;5455;53.224;6.000;2023-07-31T12:56:03;100295.66;;;22.86;100.00
10806;BME280;5455;53.224;6.000;2023-07-31T12:58:30;100301.50;;;22.91;100.00